sensor_id;sensor_type;location;lat;lon;timestamp;temperature;humidity
45137;DHT22;30894;51.740;19.498;2022-12-05T00:01:12;2.20;99.90
45137;DHT22;30894;51.740;19.498;2022-12-05T00:03:41;2.20;99.90
45137;DHT22;30894;51.740;19.498;2022-12-05T00:06:09;2.20;99.90
45137;DHT22;30894;51.740;19.498;2022-12-05T00:08:35;2.10;99.90
45137;DHT22;30894;51.740;19.498;2022-12-05T00:11:02;2.20;99.90
45137;DHT22;30894;51.740;19.498;2022-12-05T00:13:28;2.20;99.90
45137;DHT22;30894;51.740;19.498;2022-12-05T00:15:54;2.20;99.90
45137;DHT22;30894;51.740;19.498;2022-12-05T00:18:20;2.20;99.90
45137;DHT22;30894;51.740;19.498;2022-12-05T00:20:47;2.10;99.90
45137;DHT22;30894;51.740;19.498;2022-12-05T00:23:14;2.10;99.90
45137;DHT22;30894;51.740;19.498;2022-12-05T00:25:40;2.10;99.90
45137;DHT22;30894;51.740;19.498;2022-12-05T00:28:06;2.10;99.90
45137;DHT22;30894;51.740;19.498;2022-12-05T00:30:32;2.20;99.90
45137;DHT22;30894;51.740;19.498;2022-12-05T00:32:59;2.10;99.90
45137;DHT22;30894;51.740;19.498;2022-12-05T00:35:27;2.10;99.90
45137;DHT22;30894;51.740;19.498;2022-12-05T00:37:53;2.10;99.90
45137;DHT22;30894;51.740;19.498;2022-12-05T00:40:19;2.10;99.90
45137;DHT22;30894;51.740;19.498;2022-12-05T00:42:45;2.10;99.90
45137;DHT22;30894;51.740;19.498;2022-12-05T00:45:11;2.10;99.90
45137;DHT22;30894;51.740;19.498;2022-12-05T00:47:37;2.10;99.90
45137;DHT22;30894;51.740;19.498;2022-12-05T00:50:04;2.10;99.90
45137;DHT22;30894;51.740;19.498;2022-12-05T00:52:33;2.10;99.90
45137;DHT22;30894;51.740;19.498;2022-12-05T00:54:59;2.10;99.90
45137;DHT22;30894;51.740;19.498;2022-12-05T00:57:25;2.10;99.90
45137;DHT22;30894;51.740;19.498;2022-12-05T00:59:51;2.10;99.90
45137;DHT22;30894;51.740;19.498;2022-12-05T01:02:17;2.10;99.90
45137;DHT22;30894;51.740;19.498;2022-12-05T01:04:44;2.00;99.90
45137;DHT22;30894;51.740;19.498;2022-12-05T01:07:16;2.10;99.90
45137;DHT22;30894;51.740;19.498;2022-12-05T01:09:42;2.10;99.90
45137;DHT22;30894;51.740;19.498;2022-12-05T01:12:08;2.10;99.90
45137;DHT22;30894;51.740;19.498;2022-12-05T01:14:34;2.10;99.90
45137;DHT22;30894;51.740;19.498;2022-12-05T01:17:00;2.00;99.90
45137;DHT22;30894;51.740;19.498;2022-12-05T01:19:30;2.10;99.90
45137;DHT22;30894;51.740;19.498;2022-12-05T01:21:57;2.10;99.90
45137;DHT22;30894;51.740;19.498;2022-12-05T01:24:26;2.00;99.90
45137;DHT22;30894;51.740;19.498;2022-12-05T01:26:55;2.00;99.90
45137;DHT22;30894;51.740;19.498;2022-12-05T01:29:26;2.00;99.90
45137;DHT22;30894;51.740;19.498;2022-12-05T01:31:52;2.00;99.90
45137;DHT22;30894;51.740;19.498;2022-12-05T01:34:19;2.00;99.90
45137;DHT22;30894;51.740;19.498;2022-12-05T01:36:46;2.00;99.90
45137;DHT22;30894;51.740;19.498;2022-12-05T01:39:14;2.00;99.90
45137;DHT22;30894;51.740;19.498;2022-12-05T01:41:44;2.10;99.90
45137;DHT22;30894;51.740;19.498;2022-12-05T01:46:45;2.00;99.90
45137;DHT22;30894;51.740;19.498;2022-12-05T01:49:27;2.00;99.90
45137;DHT22;30894;51.740;19.498;2022-12-05T01:52:01;2.00;99.90
45137;DHT22;30894;51.740;19.498;2022-12-05T01:54:31;2.00;99.90
45137;DHT22;30894;51.740;19.498;2022-12-05T01:57:05;2.00;99.90
45137;DHT22;30894;51.740;19.498;2022-12-05T01:59:48;2.00;99.90
45137;DHT22;30894;51.740;19.498;2022-12-05T02:02:15;2.00;99.90
45137;DHT22;30894;51.740;19.498;2022-12-05T02:04:56;2.00;99.90
45137;DHT22;30894;51.740;19.498;2022-12-05T02:07:28;2.00;99.90
45137;DHT22;30894;51.740;19.498;2022-12-05T02:09:56;2.00;99.90
45137;DHT22;30894;51.740;19.498;2022-12-05T02:12:22;2.00;99.90
45137;DHT22;30894;51.740;19.498;2022-12-05T02:17:53;2.00;99.90
45137;DHT22;30894;51.740;19.498;2022-12-05T02:32:50;2.00;99.90
45137;DHT22;30894;51.740;19.498;2022-12-05T02:38:58;2.00;99.90
45137;DHT22;30894;51.740;19.498;2022-12-05T02:44:21;2.00;99.90
45137;DHT22;30894;51.740;19.498;2022-12-05T02:47:07;2.00;99.90
45137;DHT22;30894;51.740;19.498;2022-12-05T02:49:48;1.90;99.90
45137;DHT22;30894;51.740;19.498;2022-12-05T02:52:24;2.00;99.90
45137;DHT22;30894;51.740;19.498;2022-12-05T02:54:53;1.90;99.90
45137;DHT22;30894;51.740;19.498;2022-12-05T02:57:22;1.90;99.90
45137;DHT22;30894;51.740;19.498;2022-12-05T02:59:50;1.90;99.90
45137;DHT22;30894;51.740;19.498;2022-12-05T03:02:33;1.90;99.90
45137;DHT22;30894;51.740;19.498;2022-12-05T03:07:59;1.90;99.90
45137;DHT22;30894;51.740;19.498;2022-12-05T03:10:28;1.90;99.90
45137;DHT22;30894;51.740;19.498;2022-12-05T03:13:01;1.90;99.90
45137;DHT22;30894;51.740;19.498;2022-12-05T03:15:36;1.90;99.90
45137;DHT22;30894;51.740;19.498;2022-12-05T03:18:29;1.90;99.90
45137;DHT22;30894;51.740;19.498;2022-12-05T03:21:04;1.90;99.90
45137;DHT22;30894;51.740;19.498;2022-12-05T03:23:42;1.90;99.90
45137;DHT22;30894;51.740;19.498;2022-12-05T03:26:29;1.90;99.90
45137;DHT22;30894;51.740;19.498;2022-12-05T03:32:07;1.90;99.90
45137;DHT22;30894;51.740;19.498;2022-12-05T03:37:54;1.90;99.90
45137;DHT22;30894;51.740;19.498;2022-12-05T03:40:33;1.90;99.90
45137;DHT22;30894;51.740;19.498;2022-12-05T03:45:50;1.90;99.90
45137;DHT22;30894;51.740;19.498;2022-12-05T03:48:30;1.90;99.90
45137;DHT22;30894;51.740;19.498;2022-12-05T03:51:06;2.00;99.90
45137;DHT22;30894;51.740;19.498;2022-12-05T03:53:59;2.00;99.90
45137;DHT22;30894;51.740;19.498;2022-12-05T03:56:34;1.90;99.90
45137;DHT22;30894;51.740;19.498;2022-12-05T03:59:11;1.90;99.90
45137;DHT22;30894;51.740;19.498;2022-12-05T04:02:14;1.90;99.90
45137;DHT22;30894;51.740;19.498;2022-12-05T04:04:52;1.90;99.90
45137;DHT22;30894;51.740;19.498;2022-12-05T04:07:21;1.90;99.90
45137;DHT22;30894;51.740;19.498;2022-12-05T04:09:56;1.90;99.90
45137;DHT22;30894;51.740;19.498;2022-12-05T04:12:30;1.90;99.90
45137;DHT22;30894;51.740;19.498;2022-12-05T04:15:05;1.90;99.90
45137;DHT22;30894;51.740;19.498;2022-12-05T04:20:32;2.00;99.90
45137;DHT22;30894;51.740;19.498;2022-12-05T04:23:30;1.90;99.90
45137;DHT22;30894;51.740;19.498;2022-12-05T04:26:00;1.90;99.90
45137;DHT22;30894;51.740;19.498;2022-12-05T04:28:56;2.00;99.90
45137;DHT22;30894;51.740;19.498;2022-12-05T04:31:43;1.90;99.90
45137;DHT22;30894;51.740;19.498;2022-12-05T04:34:13;2.00;99.90
45137;DHT22;30894;51.740;19.498;2022-12-05T04:36:49;1.90;99.90
45137;DHT22;30894;51.740;19.498;2022-12-05T04:39:35;2.00;99.90
45137;DHT22;30894;51.740;19.498;2022-12-05T04:42:18;2.00;99.90
45137;DHT22;30894;51.740;19.498;2022-12-05T04:44:52;2.00;99.90
45137;DHT22;30894;51.740;19.498;2022-12-05T04:47:26;2.00;99.90
45137;DHT22;30894;51.740;19.498;2022-12-05T04:50:09;1.90;99.90
45137;DHT22;30894;51.740;19.498;2022-12-05T04:52:38;1.90;99.90
45137;DHT22;30894;51.740;19.498;2022-12-05T04:55:12;2.00;99.90
45137;DHT22;30894;51.740;19.498;2022-12-05T04:57:55;1.90;99.90
45137;DHT22;30894;51.740;19.498;2022-12-05T05:00:28;1.90;99.90
45137;DHT22;30894;51.740;19.498;2022-12-05T05:03:06;2.00;99.90
45137;DHT22;30894;51.740;19.498;2022-12-05T05:05:39;2.00;99.90
45137;DHT22;30894;51.740;19.498;2022-12-05T05:08:17;2.00;99.90
45137;DHT22;30894;51.740;19.498;2022-12-05T05:13:31;2.00;99.90
45137;DHT22;30894;51.740;19.498;2022-12-05T05:16:06;2.00;99.90
45137;DHT22;30894;51.740;19.498;2022-12-05T05:18:33;2.00;99.90
45137;DHT22;30894;51.740;19.498;2022-12-05T05:21:02;2.00;99.90
45137;DHT22;30894;51.740;19.498;2022-12-05T05:23:29;2.00;99.90
45137;DHT22;30894;51.740;19.498;2022-12-05T05:25:55;2.00;99.90
45137;DHT22;30894;51.740;19.498;2022-12-05T05:28:22;2.00;99.90
45137;DHT22;30894;51.740;19.498;2022-12-05T05:30:48;2.00;99.90
45137;DHT22;30894;51.740;19.498;2022-12-05T05:33:35;2.00;99.90
45137;DHT22;30894;51.740;19.498;2022-12-05T05:36:25;2.00;99.90
45137;DHT22;30894;51.740;19.498;2022-12-05T05:38:57;2.00;99.90
45137;DHT22;30894;51.740;19.498;2022-12-05T05:41:28;2.00;99.90
45137;DHT22;30894;51.740;19.498;2022-12-05T05:44:12;2.00;99.90
45137;DHT22;30894;51.740;19.498;2022-12-05T05:46:55;2.00;99.90
45137;DHT22;30894;51.740;19.498;2022-12-05T05:49:32;2.00;99.90
45137;DHT22;30894;51.740;19.498;2022-12-05T05:52:01;2.00;99.90
45137;DHT22;30894;51.740;19.498;2022-12-05T05:54:28;2.00;99.90
45137;DHT22;30894;51.740;19.498;2022-12-05T05:56:54;2.00;99.90
45137;DHT22;30894;51.740;19.498;2022-12-05T05:59:20;2.00;99.90
45137;DHT22;30894;51.740;19.498;2022-12-05T06:01:47;2.00;99.90
45137;DHT22;30894;51.740;19.498;2022-12-05T06:04:13;2.00;99.90
45137;DHT22;30894;51.740;19.498;2022-12-05T06:06:39;2.00;99.90
45137;DHT22;30894;51.740;19.498;2022-12-05T06:09:07;2.00;99.90
45137;DHT22;30894;51.740;19.498;2022-12-05T06:11:34;2.00;99.90
45137;DHT22;30894;51.740;19.498;2022-12-05T06:14:01;2.00;99.90
45137;DHT22;30894;51.740;19.498;2022-12-05T06:16:30;2.00;99.90
45137;DHT22;30894;51.740;19.498;2022-12-05T06:18:57;2.00;99.90
45137;DHT22;30894;51.740;19.498;2022-12-05T06:21:23;2.00;99.90
45137;DHT22;30894;51.740;19.498;2022-12-05T06:23:50;2.00;99.90
45137;DHT22;30894;51.740;19.498;2022-12-05T06:26:19;2.00;99.90
45137;DHT22;30894;51.740;19.498;2022-12-05T06:28:52;2.00;99.90
45137;DHT22;30894;51.740;19.498;2022-12-05T06:31:21;2.00;99.90
45137;DHT22;30894;51.740;19.498;2022-12-05T06:33:48;2.00;99.90
45137;DHT22;30894;51.740;19.498;2022-12-05T06:36:17;2.00;99.90
45137;DHT22;30894;51.740;19.498;2022-12-05T06:38:51;2.00;99.90
45137;DHT22;30894;51.740;19.498;2022-12-05T06:41:19;2.00;99.90
45137;DHT22;30894;51.740;19.498;2022-12-05T06:43:46;2.00;99.90
45137;DHT22;30894;51.740;19.498;2022-12-05T06:46:13;2.00;99.90
45137;DHT22;30894;51.740;19.498;2022-12-05T06:48:40;2.00;99.90
45137;DHT22;30894;51.740;19.498;2022-12-05T06:51:27;2.00;99.90
45137;DHT22;30894;51.740;19.498;2022-12-05T06:53:56;2.00;99.90
45137;DHT22;30894;51.740;19.498;2022-12-05T06:56:25;2.10;99.90
45137;DHT22;30894;51.740;19.498;2022-12-05T06:58:52;2.00;99.90
45137;DHT22;30894;51.740;19.498;2022-12-05T07:01:20;2.10;99.90
45137;DHT22;30894;51.740;19.498;2022-12-05T07:04:14;2.00;99.90
45137;DHT22;30894;51.740;19.498;2022-12-05T07:06:46;2.10;99.90
45137;DHT22;30894;51.740;19.498;2022-12-05T07:09:17;2.10;99.90
45137;DHT22;30894;51.740;19.498;2022-12-05T07:11:50;2.10;99.90
45137;DHT22;30894;51.740;19.498;2022-12-05T07:14:26;2.10;99.90
45137;DHT22;30894;51.740;19.498;2022-12-05T07:16:53;2.10;99.90
45137;DHT22;30894;51.740;19.498;2022-12-05T07:19:19;2.10;99.90
45137;DHT22;30894;51.740;19.498;2022-12-05T07:21:45;2.10;99.90
45137;DHT22;30894;51.740;19.498;2022-12-05T07:24:12;2.10;99.90
45137;DHT22;30894;51.740;19.498;2022-12-05T07:26:46;2.10;99.90
45137;DHT22;30894;51.740;19.498;2022-12-05T07:29:14;2.10;99.90
45137;DHT22;30894;51.740;19.498;2022-12-05T07:31:41;2.20;99.90
45137;DHT22;30894;51.740;19.498;2022-12-05T07:34:11;2.20;99.90
45137;DHT22;30894;51.740;19.498;2022-12-05T07:36:37;2.20;99.90
45137;DHT22;30894;51.740;19.498;2022-12-05T07:39:03;2.20;99.90
45137;DHT22;30894;51.740;19.498;2022-12-05T07:41:31;2.20;99.90
45137;DHT22;30894;51.740;19.498;2022-12-05T07:43:59;2.30;99.90
45137;DHT22;30894;51.740;19.498;2022-12-05T07:46:26;2.20;99.90
45137;DHT22;30894;51.740;19.498;2022-12-05T07:48:54;2.30;99.90
45137;DHT22;30894;51.740;19.498;2022-12-05T07:51:21;2.30;99.90
45137;DHT22;30894;51.740;19.498;2022-12-05T07:53:49;2.30;99.90
45137;DHT22;30894;51.740;19.498;2022-12-05T07:56:16;2.30;99.90
45137;DHT22;30894;51.740;19.498;2022-12-05T07:58:46;2.30;99.90
45137;DHT22;30894;51.740;19.498;2022-12-05T08:01:15;2.40;99.90
45137;DHT22;30894;51.740;19.498;2022-12-05T08:03:43;2.40;99.90
45137;DHT22;30894;51.740;19.498;2022-12-05T08:06:16;2.40;99.90
45137;DHT22;30894;51.740;19.498;2022-12-05T08:08:45;2.40;99.90
45137;DHT22;30894;51.740;19.498;2022-12-05T08:11:21;2.40;99.90
45137;DHT22;30894;51.740;19.498;2022-12-05T08:13:53;2.50;99.90
45137;DHT22;30894;51.740;19.498;2022-12-05T08:16:22;2.50;99.90
45137;DHT22;30894;51.740;19.498;2022-12-05T08:18:57;2.50;99.90
45137;DHT22;30894;51.740;19.498;2022-12-05T08:21:28;2.60;99.90
45137;DHT22;30894;51.740;19.498;2022-12-05T08:23:58;2.60;99.90
45137;DHT22;30894;51.740;19.498;2022-12-05T08:26:26;2.60;99.90
45137;DHT22;30894;51.740;19.498;2022-12-05T08:29:04;2.60;99.90
45137;DHT22;30894;51.740;19.498;2022-12-05T08:31:33;2.70;99.90
45137;DHT22;30894;51.740;19.498;2022-12-05T08:34:01;2.80;99.90
45137;DHT22;30894;51.740;19.498;2022-12-05T08:36:29;2.90;99.90
45137;DHT22;30894;51.740;19.498;2022-12-05T08:39:07;2.90;99.90
45137;DHT22;30894;51.740;19.498;2022-12-05T08:41:40;2.90;99.90
45137;DHT22;30894;51.740;19.498;2022-12-05T08:44:13;2.90;99.90
45137;DHT22;30894;51.740;19.498;2022-12-05T08:46:45;2.90;99.90
45137;DHT22;30894;51.740;19.498;2022-12-05T08:49:15;2.90;99.90
45137;DHT22;30894;51.740;19.498;2022-12-05T08:51:42;3.00;99.90
45137;DHT22;30894;51.740;19.498;2022-12-05T08:54:08;3.00;99.90
45137;DHT22;30894;51.740;19.498;2022-12-05T08:56:35;3.00;99.90
45137;DHT22;30894;51.740;19.498;2022-12-05T08:59:03;3.00;99.90
45137;DHT22;30894;51.740;19.498;2022-12-05T09:01:35;3.00;99.90
45137;DHT22;30894;51.740;19.498;2022-12-05T09:04:23;3.00;99.90
45137;DHT22;30894;51.740;19.498;2022-12-05T09:06:50;3.00;99.90
45137;DHT22;30894;51.740;19.498;2022-12-05T09:09:16;3.00;99.90
45137;DHT22;30894;51.740;19.498;2022-12-05T09:11:46;3.00;99.90
45137;DHT22;30894;51.740;19.498;2022-12-05T09:14:28;3.10;99.90
45137;DHT22;30894;51.740;19.498;2022-12-05T09:16:58;3.10;99.90
45137;DHT22;30894;51.740;19.498;2022-12-05T09:19:27;3.10;99.90
45137;DHT22;30894;51.740;19.498;2022-12-05T09:22:12;3.10;99.90
45137;DHT22;30894;51.740;19.498;2022-12-05T09:24:39;3.10;99.90
45137;DHT22;30894;51.740;19.498;2022-12-05T09:27:05;3.10;99.90
45137;DHT22;30894;51.740;19.498;2022-12-05T09:29:31;3.10;99.90
45137;DHT22;30894;51.740;19.498;2022-12-05T09:32:09;3.20;99.90
45137;DHT22;30894;51.740;19.498;2022-12-05T09:34:36;3.20;99.90
45137;DHT22;30894;51.740;19.498;2022-12-05T09:37:04;3.20;99.90
45137;DHT22;30894;51.740;19.498;2022-12-05T09:39:30;3.20;99.90
45137;DHT22;30894;51.740;19.498;2022-12-05T09:47:50;3.40;99.90
45137;DHT22;30894;51.740;19.498;2022-12-05T09:50:49;3.40;99.90
45137;DHT22;30894;51.740;19.498;2022-12-05T09:53:31;3.40;99.90
45137;DHT22;30894;51.740;19.498;2022-12-05T09:56:22;3.50;99.90
45137;DHT22;30894;51.740;19.498;2022-12-05T09:59:03;3.50;99.90
45137;DHT22;30894;51.740;19.498;2022-12-05T10:04:45;3.60;99.90
45137;DHT22;30894;51.740;19.498;2022-12-05T10:11:02;3.80;99.90
45137;DHT22;30894;51.740;19.498;2022-12-05T10:14:25;3.80;99.90
45137;DHT22;30894;51.740;19.498;2022-12-05T10:17:14;3.80;99.90
45137;DHT22;30894;51.740;19.498;2022-12-05T10:20:02;3.90;99.90
45137;DHT22;30894;51.740;19.498;2022-12-05T10:23:07;4.00;99.90
45137;DHT22;30894;51.740;19.498;2022-12-05T10:25:58;4.00;99.90
45137;DHT22;30894;51.740;19.498;2022-12-05T10:31:37;3.90;99.90
45137;DHT22;30894;51.740;19.498;2022-12-05T10:37:04;3.90;99.90
45137;DHT22;30894;51.740;19.498;2022-12-05T10:39:35;3.90;99.90
45137;DHT22;30894;51.740;19.498;2022-12-05T10:42:03;3.90;99.90
45137;DHT22;30894;51.740;19.498;2022-12-05T10:44:31;3.90;99.90
45137;DHT22;30894;51.740;19.498;2022-12-05T10:46:58;3.80;99.90
45137;DHT22;30894;51.740;19.498;2022-12-05T10:49:27;3.80;99.90
45137;DHT22;30894;51.740;19.498;2022-12-05T10:51:55;3.80;99.90
45137;DHT22;30894;51.740;19.498;2022-12-05T10:54:25;3.90;99.90
45137;DHT22;30894;51.740;19.498;2022-12-05T10:56:54;3.90;99.90
45137;DHT22;30894;51.740;19.498;2022-12-05T10:59:24;3.90;99.90
45137;DHT22;30894;51.740;19.498;2022-12-05T11:01:56;3.90;99.90
45137;DHT22;30894;51.740;19.498;2022-12-05T11:04:30;3.90;99.90
45137;DHT22;30894;51.740;19.498;2022-12-05T11:06:59;3.90;99.90
45137;DHT22;30894;51.740;19.498;2022-12-05T11:09:35;3.90;99.90
45137;DHT22;30894;51.740;19.498;2022-12-05T11:14:34;4.10;99.90
45137;DHT22;30894;51.740;19.498;2022-12-05T11:17:03;4.10;99.90
45137;DHT22;30894;51.740;19.498;2022-12-05T11:19:33;4.10;99.90
45137;DHT22;30894;51.740;19.498;2022-12-05T11:22:02;4.20;99.90
45137;DHT22;30894;51.740;19.498;2022-12-05T11:24:38;4.20;99.90
45137;DHT22;30894;51.740;19.498;2022-12-05T11:27:23;4.30;99.90
45137;DHT22;30894;51.740;19.498;2022-12-05T11:33:15;4.30;99.90
45137;DHT22;30894;51.740;19.498;2022-12-05T11:35:47;4.30;99.90
45137;DHT22;30894;51.740;19.498;2022-12-05T11:38:16;4.30;99.90
45137;DHT22;30894;51.740;19.498;2022-12-05T11:40:52;4.20;99.90
45137;DHT22;30894;51.740;19.498;2022-12-05T11:46:03;4.20;99.90
45137;DHT22;30894;51.740;19.498;2022-12-05T11:58:40;4.10;99.90
45137;DHT22;30894;51.740;19.498;2022-12-05T12:04:51;4.10;99.90
45137;DHT22;30894;51.740;19.498;2022-12-05T12:14:01;4.10;99.90
45137;DHT22;30894;51.740;19.498;2022-12-05T12:20:17;4.20;99.90
45137;DHT22;30894;51.740;19.498;2022-12-05T12:34:28;4.20;99.90
45137;DHT22;30894;51.740;19.498;2022-12-05T12:37:26;4.20;99.90
45137;DHT22;30894;51.740;19.498;2022-12-05T12:40:11;4.20;99.90
45137;DHT22;30894;51.740;19.498;2022-12-05T12:46:05;4.10;99.90
45137;DHT22;30894;51.740;19.498;2022-12-05T12:51:49;4.10;99.90
45137;DHT22;30894;51.740;19.498;2022-12-05T12:57:33;4.10;99.90
45137;DHT22;30894;51.740;19.498;2022-12-05T13:00:21;4.10;99.90
45137;DHT22;30894;51.740;19.498;2022-12-05T13:03:12;4.20;99.90
45137;DHT22;30894;51.740;19.498;2022-12-05T13:05:46;4.20;99.90
45137;DHT22;30894;51.740;19.498;2022-12-05T13:11:08;4.10;99.90
45137;DHT22;30894;51.740;19.498;2022-12-05T13:13:42;4.10;99.90
45137;DHT22;30894;51.740;19.498;2022-12-05T13:16:20;4.10;99.90
45137;DHT22;30894;51.740;19.498;2022-12-05T13:19:41;4.10;99.90
45137;DHT22;30894;51.740;19.498;2022-12-05T13:22:13;4.10;99.90
45137;DHT22;30894;51.740;19.498;2022-12-05T13:24:41;4.10;99.90
45137;DHT22;30894;51.740;19.498;2022-12-05T13:27:13;4.10;99.90
45137;DHT22;30894;51.740;19.498;2022-12-05T13:29:48;4.10;99.90
45137;DHT22;30894;51.740;19.498;2022-12-05T13:37:33;4.00;99.90
45137;DHT22;30894;51.740;19.498;2022-12-05T13:40:32;4.00;99.90
45137;DHT22;30894;51.740;19.498;2022-12-05T13:43:26;4.00;99.90
45137;DHT22;30894;51.740;19.498;2022-12-05T13:48:32;4.00;99.90
45137;DHT22;30894;51.740;19.498;2022-12-05T13:51:10;4.00;99.90
45137;DHT22;30894;51.740;19.498;2022-12-05T13:53:47;4.00;99.90
45137;DHT22;30894;51.740;19.498;2022-12-05T13:56:26;4.00;99.90
45137;DHT22;30894;51.740;19.498;2022-12-05T14:05:50;3.90;99.90
45137;DHT22;30894;51.740;19.498;2022-12-05T14:11:15;3.90;99.90
45137;DHT22;30894;51.740;19.498;2022-12-05T14:13:43;3.90;99.90
45137;DHT22;30894;51.740;19.498;2022-12-05T14:19:05;3.90;99.90
45137;DHT22;30894;51.740;19.498;2022-12-05T14:28:25;3.90;99.90
45137;DHT22;30894;51.740;19.498;2022-12-05T14:37:01;3.90;99.90
45137;DHT22;30894;51.740;19.498;2022-12-05T14:51:00;4.00;99.90
45137;DHT22;30894;51.740;19.498;2022-12-05T14:53:43;3.90;99.90
45137;DHT22;30894;51.740;19.498;2022-12-05T14:56:13;3.90;99.90
45137;DHT22;30894;51.740;19.498;2022-12-05T14:59:01;3.90;99.90
45137;DHT22;30894;51.740;19.498;2022-12-05T15:01:42;3.90;99.90
45137;DHT22;30894;51.740;19.498;2022-12-05T15:07:28;4.00;99.90
45137;DHT22;30894;51.740;19.498;2022-12-05T15:12:56;4.00;99.90
45137;DHT22;30894;51.740;19.498;2022-12-05T15:18:02;4.00;99.90
45137;DHT22;30894;51.740;19.498;2022-12-05T15:29:07;4.10;99.90
45137;DHT22;30894;51.740;19.498;2022-12-05T15:31:49;4.10;99.90
45137;DHT22;30894;51.740;19.498;2022-12-05T15:37:39;4.10;99.90
45137;DHT22;30894;51.740;19.498;2022-12-05T15:40:16;4.10;99.90
45137;DHT22;30894;51.740;19.498;2022-12-05T15:42:48;4.10;99.90
45137;DHT22;30894;51.740;19.498;2022-12-05T15:45:22;4.10;99.90
45137;DHT22;30894;51.740;19.498;2022-12-05T15:50:38;4.10;99.90
45137;DHT22;30894;51.740;19.498;2022-12-05T15:53:16;4.10;99.90
45137;DHT22;30894;51.740;19.498;2022-12-05T15:56:21;4.10;99.90
45137;DHT22;30894;51.740;19.498;2022-12-05T15:59:24;4.10;99.90
45137;DHT22;30894;51.740;19.498;2022-12-05T16:02:11;4.20;99.90
45137;DHT22;30894;51.740;19.498;2022-12-05T16:04:54;4.20;99.90
45137;DHT22;30894;51.740;19.498;2022-12-05T16:07:23;4.20;99.90
45137;DHT22;30894;51.740;19.498;2022-12-05T16:09:55;4.20;99.90
45137;DHT22;30894;51.740;19.498;2022-12-05T16:12:38;4.30;99.90
45137;DHT22;30894;51.740;19.498;2022-12-05T16:15:19;4.20;99.90
45137;DHT22;30894;51.740;19.498;2022-12-05T16:17:56;4.30;99.90
45137;DHT22;30894;51.740;19.498;2022-12-05T16:23:03;4.30;99.90
45137;DHT22;30894;51.740;19.498;2022-12-05T16:25:35;4.30;99.90
45137;DHT22;30894;51.740;19.498;2022-12-05T16:30:39;4.30;99.90
45137;DHT22;30894;51.740;19.498;2022-12-05T16:33:15;4.30;99.90
45137;DHT22;30894;51.740;19.498;2022-12-05T16:35:45;4.40;99.90
45137;DHT22;30894;51.740;19.498;2022-12-05T16:52:12;4.40;99.90
45137;DHT22;30894;51.740;19.498;2022-12-05T16:54:46;4.50;99.90
45137;DHT22;30894;51.740;19.498;2022-12-05T16:57:42;4.40;99.90
45137;DHT22;30894;51.740;19.498;2022-12-05T17:00:13;4.40;99.90
45137;DHT22;30894;51.740;19.498;2022-12-05T17:02:40;4.40;99.90
45137;DHT22;30894;51.740;19.498;2022-12-05T17:05:13;4.50;99.90
45137;DHT22;30894;51.740;19.498;2022-12-05T17:07:43;4.50;99.90
45137;DHT22;30894;51.740;19.498;2022-12-05T17:10:09;4.50;99.90
45137;DHT22;30894;51.740;19.498;2022-12-05T17:12:36;4.50;99.90
45137;DHT22;30894;51.740;19.498;2022-12-05T17:15:05;4.50;99.90
45137;DHT22;30894;51.740;19.498;2022-12-05T17:17:36;4.50;99.90
45137;DHT22;30894;51.740;19.498;2022-12-05T17:20:06;4.60;99.90
45137;DHT22;30894;51.740;19.498;2022-12-05T17:22:33;4.50;99.90
45137;DHT22;30894;51.740;19.498;2022-12-05T17:25:00;4.50;99.90
45137;DHT22;30894;51.740;19.498;2022-12-05T17:27:27;4.60;99.90
45137;DHT22;30894;51.740;19.498;2022-12-05T17:29:54;4.60;99.90
45137;DHT22;30894;51.740;19.498;2022-12-05T17:32:21;4.50;99.90
45137;DHT22;30894;51.740;19.498;2022-12-05T17:34:50;4.60;99.90
45137;DHT22;30894;51.740;19.498;2022-12-05T17:37:19;4.60;99.90
45137;DHT22;30894;51.740;19.498;2022-12-05T17:39:45;4.60;99.90
45137;DHT22;30894;51.740;19.498;2022-12-05T17:42:17;4.60;99.90
45137;DHT22;30894;51.740;19.498;2022-12-05T17:44:43;4.60;99.90
45137;DHT22;30894;51.740;19.498;2022-12-05T17:47:10;4.60;99.90
45137;DHT22;30894;51.740;19.498;2022-12-05T17:49:36;4.60;99.90
45137;DHT22;30894;51.740;19.498;2022-12-05T17:52:03;4.60;99.90
45137;DHT22;30894;51.740;19.498;2022-12-05T17:54:33;4.70;99.90
45137;DHT22;30894;51.740;19.498;2022-12-05T17:57:11;4.70;99.90
45137;DHT22;30894;51.740;19.498;2022-12-05T17:59:37;4.70;99.90
45137;DHT22;30894;51.740;19.498;2022-12-05T18:02:14;4.70;99.90
45137;DHT22;30894;51.740;19.498;2022-12-05T18:04:43;4.70;99.90
45137;DHT22;30894;51.740;19.498;2022-12-05T18:07:12;4.80;99.90
45137;DHT22;30894;51.740;19.498;2022-12-05T18:09:39;4.80;99.90
45137;DHT22;30894;51.740;19.498;2022-12-05T18:12:09;4.80;99.90
45137;DHT22;30894;51.740;19.498;2022-12-05T18:14:36;4.80;99.90
45137;DHT22;30894;51.740;19.498;2022-12-05T18:17:04;4.70;99.90
45137;DHT22;30894;51.740;19.498;2022-12-05T18:19:31;4.80;99.90
45137;DHT22;30894;51.740;19.498;2022-12-05T18:21:58;4.80;99.90
45137;DHT22;30894;51.740;19.498;2022-12-05T18:24:24;4.80;99.90
45137;DHT22;30894;51.740;19.498;2022-12-05T18:26:50;4.80;99.90
45137;DHT22;30894;51.740;19.498;2022-12-05T18:29:16;4.80;99.90
45137;DHT22;30894;51.740;19.498;2022-12-05T18:31:43;4.80;99.90
45137;DHT22;30894;51.740;19.498;2022-12-05T18:34:10;4.80;99.90
45137;DHT22;30894;51.740;19.498;2022-12-05T18:36:36;4.80;99.90
45137;DHT22;30894;51.740;19.498;2022-12-05T18:39:03;4.80;99.90
45137;DHT22;30894;51.740;19.498;2022-12-05T18:41:30;4.80;99.90
45137;DHT22;30894;51.740;19.498;2022-12-05T18:43:57;4.80;99.90
45137;DHT22;30894;51.740;19.498;2022-12-05T18:46:23;4.80;99.90
45137;DHT22;30894;51.740;19.498;2022-12-05T18:48:50;4.80;99.90
45137;DHT22;30894;51.740;19.498;2022-12-05T18:51:20;4.80;99.90
45137;DHT22;30894;51.740;19.498;2022-12-05T18:53:50;4.80;99.90
45137;DHT22;30894;51.740;19.498;2022-12-05T18:56:22;4.80;99.90
45137;DHT22;30894;51.740;19.498;2022-12-05T18:59:00;4.80;99.90
45137;DHT22;30894;51.740;19.498;2022-12-05T19:01:34;4.80;99.90
45137;DHT22;30894;51.740;19.498;2022-12-05T19:04:03;4.80;99.90
45137;DHT22;30894;51.740;19.498;2022-12-05T19:06:31;4.80;99.90
45137;DHT22;30894;51.740;19.498;2022-12-05T19:09:04;4.80;99.90
45137;DHT22;30894;51.740;19.498;2022-12-05T19:11:34;4.80;99.90
45137;DHT22;30894;51.740;19.498;2022-12-05T19:14:03;4.80;99.90
45137;DHT22;30894;51.740;19.498;2022-12-05T19:16:37;4.80;99.90
45137;DHT22;30894;51.740;19.498;2022-12-05T19:19:14;4.80;99.90
45137;DHT22;30894;51.740;19.498;2022-12-05T19:21:43;4.80;99.90
45137;DHT22;30894;51.740;19.498;2022-12-05T19:24:14;4.80;99.90
45137;DHT22;30894;51.740;19.498;2022-12-05T19:26:51;4.80;99.90
45137;DHT22;30894;51.740;19.498;2022-12-05T19:29:18;4.90;99.90